Time;durP1;ratioP1;P1;durP2;ratioP2;P2;SDS_P1;SDS_P2;PMS_P1;PMS_P2;Temp;Humidity;BMP_temperature;BMP_pressure;BME280_temperature;BME280_humidity;BME280_pressure;Samples;Min_cycle;Max_cycle;Signal;HPM_P1;HPM_P2
2021/12/27 00:01:09;;;;;;;4.10;2.77;;;;;;;-0.54;61.16;100491.44;4925443;28;97454;-80
2021/12/27 00:03:34;;;;;;;3.83;2.70;;;;;;;-0.46;61.66;100498.22;4921688;28;101162;-81
2021/12/27 00:05:59;;;;;;;5.80;3.33;;;;;;;-0.42;61.41;100500.84;4919593;28;97913;-81
2021/12/27 00:08:25;;;;;;;6.10;3.27;;;;;;;-0.40;61.60;100488.44;4921327;28;97700;-81
2021/12/27 00:10:51;;;;;;;4.30;2.90;;;;;;;-0.44;61.47;100482.38;4925634;28;97218;-81
2021/12/27 00:13:17;;;;;;;8.57;3.20;;;;;;;-0.41;61.44;100481.50;4946834;28;99011;-81
2021/12/27 00:15:43;;;;;;;5.50;2.87;;;;;;;-0.38;61.43;100483.38;4917699;28;99207;-81
2021/12/27 00:18:09;;;;;;;6.20;2.73;;;;;;;-0.37;61.23;100482.19;4919368;28;97192;-81
2021/12/27 00:20:35;;;;;;;6.80;3.07;;;;;;;-0.34;61.43;100486.75;4932519;28;97737;-81
2021/12/27 00:23:00;;;;;;;4.30;2.90;;;;;;;-0.40;61.11;100485.75;4919195;28;97950;-81
2021/12/27 00:25:26;;;;;;;5.60;3.00;;;;;;;-0.32;61.37;100492.50;4919849;28;98259;-81
2021/12/27 00:27:52;;;;;;;4.03;3.30;;;;;;;-0.31;61.21;100495.97;4917407;28;97273;-81
2021/12/27 00:30:20;;;;;;;3.90;3.03;;;;;;;-0.31;61.16;100510.25;4923865;28;97839;-81
2021/12/27 00:32:46;;;;;;;3.93;2.63;;;;;;;-0.28;61.37;100489.69;4923107;28;97633;-81
2021/12/27 00:35:13;;;;;;;5.43;3.23;;;;;;;-0.26;61.46;100480.00;4919855;28;99781;-81
2021/12/27 00:37:39;;;;;;;6.10;3.20;;;;;;;-0.24;61.48;100469.50;4925429;28;98661;-81
2021/12/27 00:40:05;;;;;;;4.93;3.10;;;;;;;-0.21;61.28;100495.72;4921100;28;97370;-81
2021/12/27 00:42:30;;;;;;;6.20;2.90;;;;;;;-0.20;61.25;100483.69;4920072;28;98081;-81
2021/12/27 00:44:56;;;;;;;4.73;3.10;;;;;;;-0.20;61.11;100464.03;4919009;28;98669;-81
2021/12/27 00:47:21;;;;;;;3.63;2.77;;;;;;;-0.17;61.15;100468.59;4917830;28;97142;-82
2021/12/27 00:49:46;;;;;;;5.83;3.30;;;;;;;-0.28;60.97;100473.47;4919925;28;98355;-82
2021/12/27 00:52:12;;;;;;;7.63;3.67;;;;;;;-0.19;61.26;100465.53;4919033;28;99619;-81
2021/12/27 00:54:37;;;;;;;3.83;2.73;;;;;;;-0.31;61.26;100458.91;4922766;28;98371;-81
2021/12/27 00:57:03;;;;;;;5.87;3.33;;;;;;;-0.21;61.10;100449.00;4914368;28;97591;-80
2021/12/27 00:59:28;;;;;;;4.67;2.90;;;;;;;-0.26;61.43;100434.03;4921098;28;98279;-82
2021/12/27 01:01:53;;;;;;;7.27;3.83;;;;;;;-0.19;60.99;100450.09;4914567;28;100006;-81
2021/12/27 01:04:19;;;;;;;2.70;2.37;;;;;;;-0.18;61.04;100440.06;4942724;28;98373;-82
2021/12/27 01:06:44;;;;;;;4.50;3.03;;;;;;;-0.23;61.08;100451.38;4917704;28;97205;-82
2021/12/27 01:09:16;;;;;;;3.97;3.13;;;;;;;-0.26;61.18;100465.72;4920420;28;97131;-81
2021/12/27 01:12:08;;;;;;;6.20;3.57;;;;;;;-0.23;61.25;100444.03;4918638;28;97948;-81
2021/12/27 01:14:40;;;;;;;5.07;3.20;;;;;;;-0.23;61.16;100433.22;4914735;28;96995;-81
2021/12/27 01:17:05;;;;;;;8.03;3.30;;;;;;;-0.20;61.40;100426.94;4933689;28;97004;-81
2021/12/27 01:19:31;;;;;;;8.07;3.53;;;;;;;-0.20;61.46;100418.81;4918384;28;97019;-81
2021/12/27 01:21:56;;;;;;;4.53;3.13;;;;;;;-0.17;61.17;100425.34;4917649;28;99269;-81
2021/12/27 01:24:22;;;;;;;12.90;3.30;;;;;;;-0.17;61.04;100423.41;4917742;28;108813;-81
2021/12/27 01:26:47;;;;;;;9.07;3.40;;;;;;;-0.16;60.92;100418.75;4915699;28;97420;-82
2021/12/27 01:29:13;;;;;;;8.30;3.50;;;;;;;-0.17;61.02;100423.41;4917834;28;98101;-81
2021/12/27 01:31:38;;;;;;;5.80;3.43;;;;;;;-0.19;61.43;100412.25;4921994;28;99697;-81
2021/12/27 01:34:04;;;;;;;8.10;2.70;;;;;;;-0.16;61.25;100419.53;4911248;28;97348;-80
2021/12/27 01:36:32;;;;;;;4.97;3.37;;;;;;;-0.19;61.05;100423.06;4920931;28;98754;-81
2021/12/27 01:38:58;;;;;;;5.40;3.30;;;;;;;-0.24;61.15;100423.56;4923371;28;96968;-81
2021/12/27 01:41:23;;;;;;;4.70;2.47;;;;;;;-0.20;61.02;100420.78;4910958;28;97167;-81
2021/12/27 01:43:49;;;;;;;7.17;3.50;;;;;;;-0.22;61.25;100407.69;4919977;28;102444;-81
2021/12/27 01:46:20;;;;;;;5.63;3.30;;;;;;;-0.21;60.96;100406.50;4924400;28;97104;-82
2021/12/27 01:48:54;;;;;;;4.70;2.73;;;;;;;-0.18;61.34;100394.88;4922641;28;97337;-81
2021/12/27 01:51:20;;;;;;;6.03;3.40;;;;;;;-0.20;60.92;100391.81;4924722;28;99040;-81
2021/12/27 01:53:47;;;;;;;5.67;3.30;;;;;;;-0.20;60.61;100416.13;4917792;28;99249;-83
2021/12/27 01:56:14;;;;;;;6.83;4.37;;;;;;;-0.23;59.60;100400.78;4922435;28;97360;-81
2021/12/27 01:58:41;;;;;;;5.93;3.87;;;;;;;-0.25;61.23;100405.09;4921417;28;96989;-80
2021/12/27 02:01:08;;;;;;;5.70;3.30;;;;;;;-0.20;61.31;100412.69;4921257;28;98981;-81
2021/12/27 02:03:35;;;;;;;5.27;2.93;;;;;;;-0.18;61.26;100397.56;4921986;28;98658;-81
2021/12/27 02:06:00;;;;;;;6.40;3.93;;;;;;;-0.18;61.14;100416.50;4922560;28;97332;-80
2021/12/27 02:08:27;;;;;;;5.67;3.13;;;;;;;-0.17;60.96;100399.06;4919509;28;97346;-81
2021/12/27 02:10:52;;;;;;;5.47;3.53;;;;;;;-0.16;61.26;100405.25;4919407;28;98381;-79
2021/12/27 02:13:19;;;;;;;7.83;4.50;;;;;;;-0.19;60.47;100406.84;4916522;28;100545;-80
2021/12/27 02:15:44;;;;;;;5.90;3.20;;;;;;;-0.22;61.21;100407.69;4920385;28;98169;-81
2021/12/27 02:18:10;;;;;;;8.33;3.90;;;;;;;-0.17;61.00;100403.72;4923487;28;97051;-80
2021/12/27 02:20:38;;;;;;;7.30;3.90;;;;;;;-0.12;61.24;100400.50;4920842;28;100602;-80
2021/12/27 02:23:11;;;;;;;6.60;3.27;;;;;;;-0.10;61.51;100398.91;4919934;28;98813;-77
2021/12/27 02:25:37;;;;;;;7.67;3.67;;;;;;;-0.06;61.22;100393.38;4919082;28;98598;-81
2021/12/27 02:28:04;;;;;;;11.83;3.90;;;;;;;-0.07;60.98;100398.03;4913112;28;97941;-79
2021/12/27 02:30:30;;;;;;;6.87;3.70;;;;;;;-0.08;61.19;100395.75;4921223;28;99285;-82
2021/12/27 02:33:04;;;;;;;7.60;4.13;;;;;;;-0.07;60.52;100408.84;4951335;28;100096;-80
2021/12/27 02:35:34;;;;;;;6.17;3.67;;;;;;;-0.11;61.17;100396.63;4922029;28;97291;-81
2021/12/27 02:38:01;;;;;;;6.60;3.80;;;;;;;-0.08;60.95;100401.94;4921009;28;96904;-81
2021/12/27 02:40:29;;;;;;;8.90;3.90;;;;;;;-0.08;61.06;100379.53;4921532;28;99496;-82
2021/12/27 02:43:04;;;;;;;13.17;4.13;;;;;;;-0.06;61.32;100380.63;4956671;28;98938;-82
2021/12/27 02:45:32;;;;;;;8.20;4.30;;;;;;;-0.05;60.75;100376.75;4957457;28;96791;-82
2021/12/27 02:47:58;;;;;;;7.63;3.77;;;;;;;-0.06;61.40;100390.69;4921083;28;96973;-82
2021/12/27 02:50:25;;;;;;;5.93;3.80;;;;;;;-0.04;61.27;100380.19;4925061;28;104118;-82
2021/12/27 02:52:50;;;;;;;8.20;4.20;;;;;;;-0.09;60.78;100367.97;4921478;28;97206;-82
2021/12/27 02:55:17;;;;;;;7.80;4.50;;;;;;;-0.12;60.81;100373.47;4919488;28;97167;-82
2021/12/27 02:57:45;;;;;;;7.90;3.30;;;;;;;-0.11;61.09;100356.06;4924914;28;97461;-82
2021/12/27 03:00:16;;;;;;;7.83;3.80;;;;;;;-0.14;61.22;100354.97;4925129;28;98703;-81
2021/12/27 03:02:43;;;;;;;5.33;4.10;;;;;;;-0.16;61.32;100353.88;4917000;28;101890;-82
2021/12/27 03:05:09;;;;;;;7.40;3.63;;;;;;;-0.16;61.41;100360.06;4927355;28;96786;-82
2021/12/27 03:07:35;;;;;;;8.20;4.00;;;;;;;-0.12;60.87;100368.84;4922380;28;96863;-82
2021/12/27 03:10:00;;;;;;;9.20;4.00;;;;;;;-0.13;61.09;100364.59;4914640;28;100122;-81
2021/12/27 03:12:26;;;;;;;6.50;4.13;;;;;;;-0.16;60.96;100360.06;4919596;28;113279;-82
2021/12/27 03:14:51;;;;;;;8.23;4.57;;;;;;;-0.16;61.30;100348.47;4924244;28;97010;-82
2021/12/27 03:17:16;;;;;;;7.10;3.80;;;;;;;-0.12;61.31;100341.78;4923204;28;113429;-81
2021/12/27 03:19:41;;;;;;;7.67;4.77;;;;;;;-0.13;61.02;100351.06;4921557;28;110644;-82
2021/12/27 03:22:07;;;;;;;6.83;3.60;;;;;;;-0.10;61.25;100354.88;4920702;28;114829;-82
2021/12/27 03:24:32;;;;;;;7.43;3.53;;;;;;;-0.07;60.85;100354.03;4925787;28;99519;-82
2021/12/27 03:26:57;;;;;;;6.33;3.33;;;;;;;-0.09;61.08;100345.59;4923251;28;117189;-82
2021/12/27 03:29:23;;;;;;;7.33;3.63;;;;;;;-0.07;61.24;100330.44;4936603;28;99571;-82
2021/12/27 03:31:49;;;;;;;5.83;3.77;;;;;;;-0.08;60.95;100330.88;4924675;28;98864;-82
2021/12/27 03:34:15;;;;;;;5.03;3.33;;;;;;;-0.04;61.15;100331.53;4923590;28;97601;-82
2021/12/27 03:36:42;;;;;;;5.23;3.77;;;;;;;-0.05;61.11;100347.03;4923388;28;116528;-82
2021/12/27 03:39:09;;;;;;;8.00;4.07;;;;;;;-0.05;61.28;100351.66;4921476;28;97430;-82
2021/12/27 03:41:35;;;;;;;8.10;4.70;;;;;;;-0.06;61.09;100337.38;4914569;28;98948;-82
2021/12/27 03:44:01;;;;;;;7.67;4.03;;;;;;;-0.05;61.31;100341.63;4924326;28;97677;-83
2021/12/27 03:46:27;;;;;;;12.00;3.87;;;;;;;-0.08;61.38;100334.34;4921453;28;97901;-83
2021/12/27 03:48:52;;;;;;;8.47;4.17;;;;;;;0.02;61.33;100324.44;4921999;28;98272;-83
2021/12/27 03:51:17;;;;;;;7.90;4.30;;;;;;;0.06;61.10;100344.03;4921194;28;97516;-83
2021/12/27 03:53:43;;;;;;;8.97;4.30;;;;;;;-0.04;61.20;100307.97;4920769;28;97669;-82
2021/12/27 03:56:08;;;;;;;5.30;3.50;;;;;;;0.00;61.46;100299.78;4921452;28;96775;-82
2021/12/27 03:58:47;;;;;;;7.33;3.93;;;;;;;0.03;61.24;100323.25;4923512;28;99153;-82
2021/12/27 04:01:16;;;;;;;6.23;4.30;;;;;;;0.05;61.35;100326.28;4921582;28;100038;-82
2021/12/27 04:03:44;;;;;;;6.57;4.00;;;;;;;0.09;61.47;100315.38;4921168;28;96740;-82
2021/12/27 04:06:11;;;;;;;7.20;3.70;;;;;;;0.11;61.19;100337.34;4922684;28;97256;-82
2021/12/27 04:08:37;;;;;;;9.87;4.70;;;;;;;0.07;61.59;100306.94;4920890;28;102063;-82
2021/12/27 04:11:02;;;;;;;6.60;4.03;;;;;;;0.13;61.27;100310.63;4920706;28;96920;-80
2021/12/27 04:13:28;;;;;;;5.30;3.80;;;;;;;0.16;61.18;100301.63;4919724;28;98017;-82
2021/12/27 04:15:53;;;;;;;7.07;4.30;;;;;;;0.17;61.14;100295.06;4919691;28;97295;-84
2021/12/27 04:18:18;;;;;;;7.73;4.17;;;;;;;0.21;61.30;100282.19;4921034;28;101535;-82
2021/12/27 04:20:45;;;;;;;6.73;4.10;;;;;;;0.19;61.46;100288.03;4940204;28;100216;-82
2021/12/27 04:23:10;;;;;;;8.10;4.70;;;;;;;0.14;61.36;100290.50;4922027;28;97593;-82
2021/12/27 04:25:35;;;;;;;6.10;4.30;;;;;;;0.17;61.01;100293.13;4922524;28;103356;-83
2021/12/27 04:28:01;;;;;;;9.13;4.53;;;;;;;0.19;61.53;100281.84;4923211;28;97940;-82
2021/12/27 04:30:33;;;;;;;7.47;4.60;;;;;;;0.18;61.18;100283.78;4918712;28;99212;-83
2021/12/27 04:32:58;;;;;;;8.70;4.60;;;;;;;0.25;61.42;100296.34;4925237;28;97633;-83
2021/12/27 04:35:24;;;;;;;7.83;4.53;;;;;;;0.27;61.66;100277.75;4918170;28;96929;-83
2021/12/27 04:37:50;;;;;;;8.70;4.50;;;;;;;0.25;61.34;100294.41;4917335;28;126316;-83
2021/12/27 04:40:18;;;;;;;6.87;4.47;;;;;;;0.23;61.46;100285.97;4918141;28;100976;-80
2021/12/27 04:42:47;;;;;;;8.67;5.07;;;;;;;0.25;61.45;100272.78;4924086;28;97400;-82
2021/12/27 04:45:14;;;;;;;9.00;4.77;;;;;;;0.28;61.40;100273.88;4922857;28;100239;-82
2021/12/27 04:47:40;;;;;;;10.70;4.33;;;;;;;0.30;61.51;100268.78;4920073;28;102437;-82
2021/12/27 04:50:06;;;;;;;9.53;4.70;;;;;;;0.32;61.62;100275.28;4935081;28;99997;-82
2021/12/27 04:52:31;;;;;;;9.93;4.90;;;;;;;0.36;61.56;100272.47;4922856;28;98216;-82
2021/12/27 04:54:57;;;;;;;5.83;3.70;;;;;;;0.37;61.57;100271.28;4919462;28;99693;-83
2021/12/27 04:57:22;;;;;;;7.23;4.67;;;;;;;0.39;61.21;100277.78;4918305;28;118650;-83
2021/12/27 04:59:47;;;;;;;8.90;4.40;;;;;;;0.38;61.74;100276.25;4920147;28;98468;-82
2021/12/27 05:02:13;;;;;;;11.53;4.60;;;;;;;0.37;61.48;100274.72;4915836;28;97093;-82
2021/12/27 05:04:38;;;;;;;8.20;4.50;;;;;;;0.26;61.36;100262.72;4918485;28;97655;-83
2021/12/27 05:07:03;;;;;;;7.40;4.50;;;;;;;0.38;61.76;100267.38;4914786;28;100011;-82
2021/12/27 05:09:29;;;;;;;8.67;4.40;;;;;;;0.38;61.63;100272.78;4914188;28;97395;-82
2021/12/27 05:11:54;;;;;;;9.50;4.93;;;;;;;0.41;61.75;100256.47;4920401;28;107887;-83
2021/12/27 05:14:19;;;;;;;8.37;4.83;;;;;;;0.43;61.77;100262.19;4918508;28;96941;-82
2021/12/27 05:16:45;;;;;;;10.07;5.20;;;;;;;0.45;61.79;100262.53;4933371;28;99208;-83
2021/12/27 05:19:10;;;;;;;9.30;5.30;;;;;;;0.47;61.77;100256.66;4918084;28;98997;-83
2021/12/27 05:21:36;;;;;;;9.50;5.20;;;;;;;0.44;62.03;100266.41;4924527;28;106593;-83
2021/12/27 05:24:03;;;;;;;7.20;4.70;;;;;;;0.43;61.84;100262.19;4920088;28;103227;-81
2021/12/27 05:26:28;;;;;;;9.60;4.90;;;;;;;0.48;62.07;100245.41;4917730;28;97149;-83
2021/12/27 05:28:53;;;;;;;10.27;6.00;;;;;;;0.46;62.16;100261.31;4921084;28;97339;-83
2021/12/27 05:31:19;;;;;;;12.53;6.03;;;;;;;0.48;62.43;100241.97;4920534;28;97348;-82
2021/12/27 05:33:44;;;;;;;7.80;4.93;;;;;;;0.47;62.37;100235.03;4922727;28;96862;-82
2021/12/27 05:36:12;;;;;;;11.17;5.70;;;;;;;0.51;62.38;100239.13;4915069;28;109021;-82
2021/12/27 05:38:38;;;;;;;10.83;5.23;;;;;;;0.55;62.30;100241.72;4932757;28;100044;-83
2021/12/27 05:41:03;;;;;;;12.37;5.20;;;;;;;0.54;62.33;100240.22;4920594;28;97487;-82
2021/12/27 05:43:28;;;;;;;14.17;6.80;;;;;;;0.54;62.63;100240.22;4920944;28;100884;-83
2021/12/27 05:45:54;;;;;;;10.17;5.40;;;;;;;0.48;62.31;100237.28;4916959;28;127107;-81
2021/12/27 05:48:19;;;;;;;10.67;5.77;;;;;;;0.54;62.39;100240.22;4919704;28;100574;-83
2021/12/27 05:50:44;;;;;;;8.83;5.30;;;;;;;0.57;62.71;100223.88;4921367;28;96922;-82
2021/12/27 05:53:10;;;;;;;11.70;5.87;;;;;;;0.58;62.66;100225.41;4922346;28;96927;-83
2021/12/27 05:55:35;;;;;;;9.23;5.50;;;;;;;0.61;62.57;100221.06;4919120;28;97924;-83
2021/12/27 05:58:03;;;;;;;10.33;5.40;;;;;;;0.65;62.63;100235.25;4922767;28;97766;-82
2021/12/27 06:00:28;;;;;;;9.53;5.57;;;;;;;0.64;62.55;100222.88;4941415;28;96975;-83
2021/12/27 06:02:54;;;;;;;9.90;5.33;;;;;;;0.63;62.73;100227.53;4935006;28;102680;-83
2021/12/27 06:05:21;;;;;;;9.27;4.80;;;;;;;0.66;62.47;100212.38;4937926;28;99965;-82
2021/12/27 06:07:47;;;;;;;10.70;5.07;;;;;;;0.67;62.63;100232.84;4925634;28;98758;-82
2021/12/27 06:10:12;;;;;;;11.63;6.23;;;;;;;0.59;62.71;100269.47;4916644;28;98818;-83
2021/12/27 06:12:38;;;;;;;11.03;5.70;;;;;;;0.69;62.49;100223.13;4924733;28;97752;-83
2021/12/27 06:15:04;;;;;;;14.60;6.10;;;;;;;0.64;62.64;100258.84;4920426;28;99017;-83
2021/12/27 06:17:31;;;;;;;11.20;6.47;;;;;;;0.60;62.72;100246.59;4925398;28;97751;-83
2021/12/27 06:19:58;;;;;;;11.80;6.10;;;;;;;0.63;62.82;100205.88;4924517;28;97066;-82
2021/12/27 06:22:23;;;;;;;11.73;6.00;;;;;;;0.67;63.07;100203.09;4925901;28;97443;-83
2021/12/27 06:24:48;;;;;;;16.00;7.30;;;;;;;0.65;62.73;100200.06;4937324;28;99691;-83
2021/12/27 06:27:14;;;;;;;10.33;6.70;;;;;;;0.64;62.87;100202.00;4921212;28;122427;-83
2021/12/27 06:29:39;;;;;;;18.37;7.33;;;;;;;0.66;62.84;100210.44;4922100;28;97358;-82
2021/12/27 06:32:05;;;;;;;13.53;6.53;;;;;;;0.72;63.20;100216.06;4920578;28;97139;-82
2021/12/27 06:34:30;;;;;;;12.43;7.03;;;;;;;0.74;62.88;100206.31;4922154;28;99745;-83
2021/12/27 06:36:55;;;;;;;10.83;6.27;;;;;;;0.69;62.79;100204.16;4921906;28;100234;-83
2021/12/27 06:39:21;;;;;;;13.13;7.13;;;;;;;0.74;62.86;100200.16;4924440;28;97182;-82
2021/12/27 06:41:46;;;;;;;12.00;6.53;;;;;;;0.67;62.85;100233.63;4922313;28;97173;-83
2021/12/27 06:44:11;;;;;;;9.80;5.80;;;;;;;0.74;62.86;100200.16;4922334;28;126656;-82
2021/12/27 06:46:37;;;;;;;13.80;6.63;;;;;;;0.78;63.19;100214.31;4925625;28;107956;-83
2021/12/27 06:49:02;;;;;;;9.03;5.70;;;;;;;0.80;62.69;100205.75;4922384;28;115063;-82
2021/12/27 06:51:29;;;;;;;13.30;6.33;;;;;;;0.82;62.76;100209.56;4928240;28;96780;-82
2021/12/27 06:53:54;;;;;;;13.47;6.00;;;;;;;0.78;62.96;100206.22;4935482;28;99655;-83
2021/12/27 06:56:19;;;;;;;17.80;7.47;;;;;;;0.80;63.31;100192.22;4919335;28;101179;-84
2021/12/27 06:58:45;;;;;;;14.90;7.17;;;;;;;0.80;62.81;100192.22;4922507;28;97540;-82
2021/12/27 07:01:10;;;;;;;12.50;6.00;;;;;;;0.84;62.88;100188.22;4926345;28;97444;-83
2021/12/27 07:03:36;;;;;;;14.10;6.80;;;;;;;0.82;62.92;100197.97;4922963;28;126406;-82
2021/12/27 07:06:01;;;;;;;13.60;6.70;;;;;;;0.83;63.22;100192.09;4921480;28;97432;-82
2021/12/27 07:08:27;;;;;;;16.07;6.93;;;;;;;0.85;63.11;100192.44;4921420;28;97231;-82
2021/12/27 07:10:52;;;;;;;14.47;7.17;;;;;;;0.86;63.12;100196.66;4932653;28;96963;-83
2021/12/27 07:13:17;;;;;;;13.60;7.40;;;;;;;0.80;63.10;100195.69;4925163;28;99485;-83
2021/12/27 07:15:44;;;;;;;15.87;7.33;;;;;;;0.87;63.14;100214.44;4922318;28;97517;-83
2021/12/27 07:18:23;;;;;;;14.23;7.10;;;;;;;0.91;62.86;100182.56;4921940;28;97046;-83
2021/12/27 07:20:52;;;;;;;10.50;6.47;;;;;;;0.90;62.88;100186.47;4923509;28;97969;-83
2021/12/27 07:23:18;;;;;;;14.33;6.77;;;;;;;0.91;63.07;100182.56;4916152;28;98961;-83
2021/12/27 07:25:43;;;;;;;11.87;6.20;;;;;;;0.88;62.79;100199.69;4920961;28;100583;-83
2021/12/27 07:28:08;;;;;;;12.00;6.87;;;;;;;0.94;63.13;100184.38;4917164;28;96985;-83
2021/12/27 07:30:34;;;;;;;14.03;6.43;;;;;;;0.99;62.90;100186.53;4921433;28;97279;-83
2021/12/27 07:32:59;;;;;;;13.60;6.77;;;;;;;1.00;62.84;100195.44;4920655;28;100175;-83
2021/12/27 07:35:26;;;;;;;12.10;6.10;;;;;;;0.99;63.00;100208.22;4923054;28;98802;-83
2021/12/27 07:37:51;;;;;;;14.13;7.33;;;;;;;0.99;62.99;100207.44;4930224;28;97185;-84
2021/12/27 07:40:17;;;;;;;15.77;7.23;;;;;;;1.01;63.04;100189.56;4920656;28;98198;-82
2021/12/27 07:42:42;;;;;;;16.53;7.93;;;;;;;1.00;62.91;100206.25;4924208;28;128248;-83
2021/12/27 07:45:08;;;;;;;13.83;7.70;;;;;;;1.02;62.77;100247.97;4921834;28;98021;-82
2021/12/27 07:47:33;;;;;;;14.00;6.50;;;;;;;1.03;62.70;100208.84;4925976;28;97381;-83
2021/12/27 07:49:59;;;;;;;13.20;6.20;;;;;;;1.04;63.06;100194.13;4923441;28;97727;-82
2021/12/27 07:52:24;;;;;;;13.00;6.40;;;;;;;1.03;62.84;100240.56;4917866;28;98900;-83
2021/12/27 07:54:50;;;;;;;15.47;7.57;;;;;;;1.03;62.78;100184.47;4933871;28;99929;-82
2021/12/27 07:57:15;;;;;;;12.30;6.53;;;;;;;1.05;63.01;100181.34;4922172;28;97149;-82
2021/12/27 07:59:42;;;;;;;15.03;7.03;;;;;;;1.03;63.15;100181.75;4924224;28;96922;-82
2021/12/27 08:02:10;;;;;;;15.10;8.00;;;;;;;1.06;63.17;100199.09;4922872;28;97194;-83
2021/12/27 08:04:36;;;;;;;16.53;8.10;;;;;;;1.09;62.80;100176.56;4925003;28;99346;-82
2021/12/27 08:07:02;;;;;;;14.50;7.13;;;;;;;1.07;62.92;100176.97;4915859;28;96831;-83
2021/12/27 08:09:27;;;;;;;11.90;6.07;;;;;;;1.12;63.05;100184.56;4924098;28;97392;-82
2021/12/27 08:11:53;;;;;;;15.67;6.70;;;;;;;1.13;62.71;100191.50;4934263;28;101295;-83
2021/12/27 08:14:18;;;;;;;9.40;5.67;;;;;;;1.13;62.85;100191.50;4923012;28;100648;-83
2021/12/27 08:16:43;;;;;;;14.43;7.90;;;;;;;1.14;62.87;100205.78;4925402;28;97794;-83
2021/12/27 08:19:09;;;;;;;13.43;7.70;;;;;;;1.19;63.03;100192.44;4920593;28;96918;-82
2021/12/27 08:21:34;;;;;;;15.17;6.90;;;;;;;1.19;62.81;100191.69;4921662;28;125038;-83
2021/12/27 08:24:00;;;;;;;15.57;7.13;;;;;;;1.26;62.81;100196.88;4920749;28;97247;-83
2021/12/27 08:26:25;;;;;;;10.73;6.60;;;;;;;1.26;62.94;100211.16;4920443;28;97242;-82
2021/12/27 08:28:53;;;;;;;16.10;7.40;;;;;;;1.33;62.64;100240.72;4923055;28;96866;-83
2021/12/27 08:31:19;;;;;;;15.33;7.70;;;;;;;1.31;62.79;100197.03;4923040;28;98548;-83
2021/12/27 08:33:44;;;;;;;18.40;7.30;;;;;;;1.33;62.81;100189.22;4916604;28;98422;-83
2021/12/27 08:36:10;;;;;;;14.10;7.03;;;;;;;1.32;62.85;100168.00;4918835;28;97373;-84
2021/12/27 08:38:36;;;;;;;16.47;7.23;;;;;;;1.39;62.88;100167.75;4917539;28;97688;-84
2021/12/27 08:41:01;;;;;;;16.67;7.53;;;;;;;1.37;62.76;100179.06;4915611;28;100501;-83
2021/12/27 08:43:26;;;;;;;11.97;6.40;;;;;;;1.34;62.71;100160.19;4913894;28;97382;-83
2021/12/27 08:45:53;;;;;;;14.10;6.63;;;;;;;1.43;62.94;100203.63;4920037;28;97186;-83
2021/12/27 08:48:19;;;;;;;14.33;6.60;;;;;;;1.44;63.16;100165.22;4920349;28;96975;-83
2021/12/27 08:50:44;;;;;;;14.00;6.60;;;;;;;1.45;62.80;100166.75;4918834;28;114703;-83
2021/12/27 08:53:10;;;;;;;12.67;6.50;;;;;;;1.45;62.79;100176.81;4918965;28;99299;-84
2021/12/27 08:55:37;;;;;;;13.10;6.77;;;;;;;1.49;62.67;100164.66;4920438;28;97090;-84
2021/12/27 08:58:03;;;;;;;14.40;8.00;;;;;;;1.45;62.51;100161.34;4930963;28;97677;-84
2021/12/27 09:00:28;;;;;;;14.23;7.20;;;;;;;1.46;62.80;100172.94;4922670;28;99872;-83
2021/12/27 09:02:54;;;;;;;11.10;7.33;;;;;;;1.50;62.93;100173.56;4920196;28;101425;-82
2021/12/27 09:05:19;;;;;;;12.93;6.37;;;;;;;1.52;62.97;100163.03;4919419;28;97927;-82
2021/12/27 09:07:45;;;;;;;16.80;7.27;;;;;;;1.60;62.87;100163.50;4929909;28;96733;-83
2021/12/27 09:10:10;;;;;;;12.73;7.10;;;;;;;1.58;62.84;100160.50;4913338;28;97858;-83
2021/12/27 09:12:38;;;;;;;14.63;7.07;;;;;;;1.65;62.59;100162.94;4925383;28;97344;-84
2021/12/27 09:15:04;;;;;;;12.00;7.30;;;;;;;1.71;62.87;100167.38;4918603;28;97712;-84
2021/12/27 09:17:30;;;;;;;16.43;7.87;;;;;;;1.75;62.54;100172.66;4918068;28;102957;-84
2021/12/27 09:19:55;;;;;;;14.93;7.70;;;;;;;1.80;62.90;100169.38;4919861;28;99467;-84
2021/12/27 09:22:20;;;;;;;15.07;7.47;;;;;;;1.80;62.63;100172.06;4916117;28;111178;-84
2021/12/27 09:24:46;;;;;;;13.83;7.53;;;;;;;1.83;62.69;100184.75;4916632;28;97575;-84
2021/12/27 09:27:12;;;;;;;13.30;6.60;;;;;;;1.89;62.48;100172.13;4917235;28;97022;-85
2021/12/27 09:29:37;;;;;;;14.17;7.10;;;;;;;1.92;62.59;100182.09;4933471;28;100561;-84
2021/12/27 09:32:04;;;;;;;14.23;6.63;;;;;;;1.94;62.72;100168.84;4915740;28;98608;-84
2021/12/27 09:34:29;;;;;;;16.07;8.00;;;;;;;1.93;62.76;100161.91;4933306;28;96917;-83
2021/12/27 09:36:55;;;;;;;14.20;7.47;;;;;;;1.90;62.79;100154.66;4921271;28;97432;-84
2021/12/27 09:39:20;;;;;;;11.23;6.43;;;;;;;1.95;62.73;100160.25;4918925;28;97813;-84
2021/12/27 09:41:46;;;;;;;13.37;6.80;;;;;;;2.01;62.78;100139.47;4915534;28;98942;-84
2021/12/27 09:44:11;;;;;;;12.13;7.13;;;;;;;2.09;62.64;100142.69;4918598;28;98726;-84
2021/12/27 09:46:37;;;;;;;11.10;6.73;;;;;;;2.14;62.83;100155.69;4917565;28;96937;-84
2021/12/27 09:49:10;;;;;;;14.57;7.50;;;;;;;2.19;62.70;100144.22;4917520;28;99158;-83
2021/12/27 09:51:37;;;;;;;12.70;7.00;;;;;;;2.24;62.58;100146.38;4920392;28;102160;-84
2021/12/27 09:54:04;;;;;;;13.30;7.00;;;;;;;2.27;62.53;100148.94;4916930;28;97080;-83
2021/12/27 09:56:29;;;;;;;11.93;7.33;;;;;;;2.28;62.50;100149.69;4912820;28;97470;-83
2021/12/27 09:58:55;;;;;;;12.50;7.10;;;;;;;2.29;62.78;100141.09;4918410;28;99392;-83
2021/12/27 10:01:20;;;;;;;13.30;6.90;;;;;;;2.35;62.49;100144.00;4917266;28;98115;-83
2021/12/27 10:03:53;;;;;;;13.67;6.63;;;;;;;2.35;62.28;100138.56;4920902;28;97472;-84
2021/12/27 10:06:20;;;;;;;12.83;7.00;;;;;;;2.34;62.49;100149.88;4919039;28;97256;-83
2021/12/27 10:08:47;;;;;;;10.23;6.23;;;;;;;2.37;62.46;100141.59;4915109;28;96847;-83
2021/12/27 10:11:22;;;;;;;11.23;7.20;;;;;;;2.41;62.42;100146.84;4919044;28;98309;-83
2021/12/27 10:14:00;;;;;;;14.17;6.40;;;;;;;2.47;62.36;100126.81;4920284;28;97522;-83
2021/12/27 10:16:27;;;;;;;15.40;7.80;;;;;;;2.49;62.71;100139.97;4932079;28;97118;-83
2021/12/27 10:18:58;;;;;;;11.77;6.60;;;;;;;2.53;62.71;100144.03;4934691;28;99116;-83
2021/12/27 10:21:24;;;;;;;13.27;7.10;;;;;;;2.56;62.72;100132.28;4917176;28;98984;-83
2021/12/27 10:24:08;;;;;;;14.07;8.07;;;;;;;2.57;62.37;100139.22;4929672;28;97332;-83
2021/12/27 10:26:35;;;;;;;12.10;7.20;;;;;;;2.62;62.48;100135.91;4917432;28;97143;-83
2021/12/27 10:29:15;;;;;;;11.37;7.00;;;;;;;2.69;62.42;100121.28;4913719;28;100758;-84
2021/12/27 10:32:04;;;;;;;12.40;6.83;;;;;;;2.68;62.49;100131.41;4917436;28;100951;-83
2021/12/27 10:34:52;;;;;;;14.53;7.10;;;;;;;2.73;62.44;100121.91;4932267;28;97026;-84
2021/12/27 10:37:24;;;;;;;12.80;7.10;;;;;;;2.77;62.54;100111.66;4915265;28;98337;-85
2021/12/27 10:39:52;;;;;;;13.80;7.30;;;;;;;2.82;62.54;100116.44;4918245;28;103861;-83
2021/12/27 10:42:35;;;;;;;11.97;7.07;;;;;;;2.84;62.51;100114.81;4920883;28;99017;-82
2021/12/27 10:45:12;;;;;;;14.97;7.50;;;;;;;2.89;62.58;100099.88;4914860;28;96887;-83
2021/12/27 10:47:44;;;;;;;15.53;7.50;;;;;;;2.88;62.36;100101.81;4919181;28;97216;-83
2021/12/27 10:50:23;;;;;;;14.93;7.30;;;;;;;2.89;62.43;100100.63;4916345;28;100965;-83
2021/12/27 10:53:05;;;;;;;16.87;7.20;;;;;;;2.93;62.65;100116.75;4924373;28;99309;-84
2021/12/27 10:55:46;;;;;;;11.83;6.80;;;;;;;3.00;62.61;100092.78;4922470;28;97705;-83
2021/12/27 10:58:27;;;;;;;11.57;6.57;;;;;;;3.02;62.54;100087.63;4919717;28;96913;-83
2021/12/27 11:01:01;;;;;;;10.23;6.57;;;;;;;3.07;62.46;100080.09;4919496;28;99107;-84
2021/12/27 11:03:36;;;;;;;15.50;7.10;;;;;;;3.06;62.38;100086.75;4920482;28;98802;-83
2021/12/27 11:06:07;;;;;;;12.70;6.90;;;;;;;3.06;62.56;100073.16;4920238;28;97012;-83
2021/12/27 11:08:34;;;;;;;13.73;7.10;;;;;;;3.10;62.41;100065.59;4920563;28;98344;-83
2021/12/27 11:10:59;;;;;;;14.73;6.80;;;;;;;3.11;62.35;100077.97;4920449;28;99231;-84
2021/12/27 11:13:26;;;;;;;8.87;6.43;;;;;;;3.09;62.61;100074.94;4920110;28;100408;-84
2021/12/27 11:15:53;;;;;;;12.67;7.50;;;;;;;3.03;62.34;100069.38;4922389;28;98298;-83
2021/12/27 11:18:18;;;;;;;13.80;7.53;;;;;;;3.11;62.77;100061.66;4918901;28;97421;-84
2021/12/27 11:20:47;;;;;;;12.77;7.17;;;;;;;3.18;62.64;100077.66;4921312;28;97424;-83
2021/12/27 11:23:14;;;;;;;13.53;7.03;;;;;;;3.22;62.59;100098.03;4920951;28;98402;-82